Portada
METAR-TAF:

METAR-TAF

Aeropuertos :

Albertus Airport

Freeport, Illinois, Estados Unidos

latitud: 42-14-47N, longitud: 089-34-56W, altitud: 262 m

Observación

El informe se hizo hace 19 minutos, a las 07:15 UTC
Viento 7 kt del noroeste
Temperatura 20°C
Humedad 100%
Presión 1010 hPa
Visibilidad: 4.0 km
Cielo cubierto a una altura de 500 ft
neblina

METAR: KFEP 100715Z AUTO 31007KT 2 1/2SM BR OVC005 20/20 A2983 RMK AO2 T01950195

Hora: 02:34 (07:34 UTC)


TAF: falta

Observaciones y pronósticos meteorológicos de más de 4000 aeropuertos (mensajes METAR y TAF).

Los puntos amarillos y rojos representan las estaciones disponibles.

Ponga el ratón en el punto deseado para ver el nombre de la estación.

Haga clic para ver las observaciones y los pronósticos meteorológicos.

Para cambiar el mapa : haga clic en los botones verdes con una cruz de color negro para hacer un zoom, en el botón verde con un guión para alejar o en las flechas verdes para mapas adyacentes.


METAR-TAF: